createdAt,value
2023-01-01T00:02:36.585Z,39.10
2023-01-01T00:07:40.163Z,39.40
2023-01-01T00:12:43.248Z,39.10
2023-01-01T00:17:47.784Z,39.10
2023-01-01T00:22:55.385Z,39.40
2023-01-01T00:27:59.370Z,39.10
2023-01-01T00:33:03.841Z,39.20
2023-01-01T00:38:07.814Z,39.50
2023-01-01T00:43:10.892Z,39.30
2023-01-01T00:48:15.339Z,39.40
2023-01-01T00:53:18.701Z,39.80
2023-01-01T00:58:21.789Z,39.60
2023-01-01T01:03:29.473Z,39.70
2023-01-01T01:08:35.799Z,39.80
2023-01-01T01:13:39.884Z,39.90
2023-01-01T01:18:44.815Z,39.60
2023-01-01T01:23:48.819Z,39.90
2023-01-01T01:28:52.224Z,39.70
2023-01-01T01:33:57.559Z,39.60
2023-01-01T01:39:00.643Z,40.00
2023-01-01T01:44:26.206Z,39.70
2023-01-01T01:49:33.095Z,39.80
2023-01-01T01:54:36.228Z,40.00
2023-01-01T01:59:43.826Z,39.70
2023-01-01T02:04:48.675Z,40.00
2023-01-01T02:09:52.111Z,40.00
2023-01-01T02:14:55.494Z,39.80
2023-01-01T02:20:17.658Z,39.80
2023-01-01T02:25:28.556Z,40.80
2023-01-01T02:30:34.653Z,40.50
2023-01-01T02:35:42.578Z,40.20
2023-01-01T02:40:49.098Z,40.20
2023-01-01T02:45:54.625Z,40.10
2023-01-01T02:51:01.520Z,40.40
2023-01-01T02:56:14.069Z,40.40
2023-01-01T03:01:26.117Z,41.00
2023-01-01T03:06:38.520Z,41.00
2023-01-01T03:11:51.190Z,40.90
2023-01-01T03:17:00.366Z,40.90
2023-01-01T03:22:06.527Z,40.90
2023-01-01T03:27:12.221Z,40.90
2023-01-01T03:32:23.286Z,40.90
2023-01-01T03:37:31.797Z,40.90
2023-01-01T03:42:39.291Z,40.90
2023-01-01T03:47:44.277Z,40.90
2023-01-01T03:52:57.924Z,40.90
2023-01-01T03:58:06.260Z,40.90
2023-01-01T04:03:17.596Z,40.90
2023-01-01T04:08:21.667Z,40.90
2023-01-01T04:13:25.120Z,40.50
2023-01-01T04:18:29.578Z,40.70
2023-01-01T04:23:32.646Z,40.80
2023-01-01T04:28:35.743Z,40.70
2023-01-01T04:33:40.558Z,40.50
2023-01-01T04:38:43.632Z,40.70
2023-01-01T04:43:50.457Z,40.70
2023-01-01T04:48:54.934Z,40.70
2023-01-01T04:53:59.781Z,40.60
2023-01-01T04:59:02.887Z,40.40
2023-01-01T05:04:07.429Z,40.50
2023-01-01T05:09:11.569Z,40.50
2023-01-01T05:14:14.713Z,40.50
2023-01-01T05:19:19.165Z,40.50
2023-01-01T05:24:22.298Z,40.50
2023-01-01T05:29:25.373Z,40.40
2023-01-01T05:39:32.032Z,41.10
2023-01-01T05:44:35.157Z,40.40
2023-01-01T05:49:39.675Z,40.40
2023-01-01T05:54:42.754Z,40.30
2023-01-01T05:59:45.826Z,40.30
2023-01-01T06:04:50.571Z,40.30
2023-01-01T06:09:53.790Z,40.20
2023-01-01T06:14:56.879Z,40.20
2023-01-01T06:20:01.390Z,40.20
2023-01-01T06:25:04.894Z,40.10
2023-01-01T06:30:09.410Z,40.10
2023-01-01T06:35:13.936Z,40.10
2023-01-01T06:40:17.096Z,40.00
2023-01-01T06:45:20.219Z,40.00
2023-01-01T06:50:24.686Z,39.90
2023-01-01T06:55:27.780Z,40.80
2023-01-01T07:00:30.921Z,40.80
2023-01-01T07:05:35.398Z,40.80
2023-01-01T07:10:38.511Z,41.10
2023-01-01T07:15:41.605Z,40.80
2023-01-01T07:20:50.165Z,41.00
2023-01-01T07:25:54.618Z,41.90
2023-01-01T07:30:57.874Z,41.60
2023-01-01T07:36:02.358Z,41.40
2023-01-01T07:41:05.618Z,41.80
2023-01-01T07:46:08.728Z,41.50
2023-01-01T07:51:13.331Z,41.80
2023-01-01T07:56:16.493Z,42.20
2023-01-01T08:01:20.256Z,42.30
2023-01-01T08:06:24.814Z,42.60
2023-01-01T08:11:28.082Z,43.00
2023-01-01T08:16:31.782Z,42.90
2023-01-01T08:21:36.316Z,42.20
2023-01-01T08:26:39.843Z,42.50
2023-01-01T08:31:42.988Z,42.30
2023-01-01T08:36:50.958Z,42.30
2023-01-01T08:41:54.091Z,42.70
2023-01-01T08:46:57.251Z,42.10
2023-01-01T08:52:01.722Z,42.20
2023-01-01T08:57:04.930Z,42.40
2023-01-01T09:02:08.862Z,42.20
2023-01-01T09:07:13.640Z,42.50
2023-01-01T09:12:17.846Z,42.70
2023-01-01T09:17:21.105Z,42.80
2023-01-01T09:22:25.542Z,42.60
2023-01-01T09:27:28.707Z,42.80
2023-01-01T09:32:32.148Z,42.80
2023-01-01T09:37:36.649Z,43.40
2023-01-01T09:42:45.648Z,44.50
2023-01-01T09:47:53.477Z,44.20
2023-01-01T09:52:59.565Z,44.30
2023-01-01T09:58:02.683Z,44.40
2023-01-01T10:03:20.063Z,44.10
2023-01-01T10:08:38.453Z,44.20
2023-01-01T10:13:44.048Z,43.60
2023-01-01T10:18:49.656Z,43.80
2023-01-01T10:23:58.250Z,44.40
2023-01-01T10:29:05.436Z,43.30
2023-01-01T10:34:28.102Z,43.00
2023-01-01T10:39:32.572Z,43.00
2023-01-01T10:44:37.028Z,43.20
2023-01-01T10:49:59.636Z,43.20
2023-01-01T10:55:05.035Z,42.90
2023-01-01T11:00:21.307Z,42.60
2023-01-01T11:05:24.908Z,42.10
2023-01-01T11:10:31.267Z,42.50
2023-01-01T11:15:39.084Z,41.10
2023-01-01T11:20:42.627Z,40.50
2023-01-01T11:25:59.085Z,41.00
2023-01-01T11:31:12.570Z,40.20
2023-01-01T11:36:23.852Z,39.90
2023-01-01T11:41:28.362Z,39.40
2023-01-01T11:46:31.774Z,40.00
2023-01-01T11:51:35.426Z,40.00
2023-01-01T11:56:40.743Z,39.90
2023-01-01T12:01:48.032Z,39.60
2023-01-01T12:06:56.854Z,39.40
2023-01-01T12:12:07.762Z,39.40
2023-01-01T12:17:19.621Z,39.10
2023-01-01T12:22:22.828Z,39.10
2023-01-01T12:27:47.517Z,39.70
2023-01-01T12:33:08.897Z,38.20
2023-01-01T12:38:22.259Z,38.40
2023-01-01T12:43:36.495Z,38.10
2023-01-01T12:48:53.653Z,38.30
2023-01-01T12:54:18.420Z,38.20
2023-01-01T12:59:28.133Z,37.80
2023-01-01T13:04:31.551Z,37.30
2023-01-01T13:09:38.592Z,38.20
2023-01-01T13:14:45.120Z,37.80
2023-01-01T13:19:49.275Z,37.70
2023-01-01T13:25:05.831Z,38.00
2023-01-01T13:30:49.614Z,37.00
2023-01-01T13:36:29.881Z,37.50
2023-01-01T13:41:40.442Z,37.50
2023-01-01T13:46:59.183Z,37.20
2023-01-01T13:52:36.048Z,37.20
2023-01-01T13:58:12.418Z,37.40
2023-01-01T14:03:19.156Z,36.90
2023-01-01T14:08:33.403Z,36.90
2023-01-01T14:13:41.922Z,36.00
2023-01-01T14:18:49.761Z,36.20
2023-01-01T14:23:56.229Z,36.70
2023-01-01T14:29:00.669Z,36.70
2023-01-01T14:34:16.348Z,37.00
2023-01-01T14:39:28.009Z,36.00
2023-01-01T14:44:37.165Z,36.20
2023-01-01T14:49:41.683Z,36.40
2023-01-01T14:54:46.121Z,36.60
2023-01-01T14:59:54.465Z,36.70
2023-01-01T15:04:59.976Z,36.60
2023-01-01T15:10:03.688Z,36.50
2023-01-01T15:15:28.338Z,37.60
2023-01-01T15:20:33.763Z,36.90
2023-01-01T15:25:38.420Z,36.50
2023-01-01T15:30:41.606Z,36.70
2023-01-01T15:35:50.252Z,36.80
2023-01-01T15:40:54.026Z,36.50
2023-01-01T15:45:59.250Z,37.40
2023-01-01T15:51:13.869Z,36.70
2023-01-01T15:56:18.606Z,36.50
2023-01-01T16:01:24.204Z,36.70
2023-01-01T16:06:28.975Z,36.70
2023-01-01T16:11:32.224Z,36.60
2023-01-01T16:16:35.942Z,36.50
2023-01-01T16:21:40.390Z,36.90
2023-01-01T16:26:43.730Z,36.80
2023-01-01T16:31:48.591Z,36.80
2023-01-01T16:36:53.089Z,36.80
2023-01-01T16:41:58.831Z,36.70
2023-01-01T16:47:01.919Z,36.90
2023-01-01T16:52:06.386Z,36.90
2023-01-01T16:57:09.484Z,36.90
2023-01-01T17:02:12.646Z,37.60
2023-01-01T17:07:17.190Z,36.90
2023-01-01T17:12:20.350Z,37.10
2023-01-01T17:17:23.398Z,37.10
2023-01-01T17:22:33.929Z,37.20
2023-01-01T17:27:37.481Z,37.20
2023-01-01T17:32:40.550Z,37.20
2023-01-01T17:37:44.994Z,37.30
2023-01-01T17:42:48.058Z,37.30
2023-01-01T17:47:51.142Z,37.40
2023-01-01T17:52:55.578Z,37.50
2023-01-01T17:57:58.655Z,37.60
2023-01-01T18:03:01.847Z,37.50
2023-01-01T18:08:07.058Z,37.40
2023-01-01T18:13:10.127Z,37.80
2023-01-01T18:18:13.231Z,38.40
2023-01-01T18:23:17.696Z,37.80
2023-01-01T18:28:20.770Z,38.20
2023-01-01T18:33:24.075Z,38.10
2023-01-01T18:38:28.518Z,38.10
2023-01-01T18:43:31.606Z,38.20
2023-01-01T18:48:34.686Z,37.90
2023-01-01T18:53:39.131Z,38.00
2023-01-01T18:58:42.818Z,38.10
2023-01-01T19:03:47.542Z,38.10
2023-01-01T19:08:52.388Z,38.30
2023-01-01T19:14:03.746Z,38.30
2023-01-01T19:19:16.567Z,38.40
2023-01-01T19:24:23.809Z,38.60
2023-01-01T19:29:30.634Z,38.30
2023-01-01T19:34:36.951Z,38.70
2023-01-01T19:39:41.389Z,38.30
2023-01-01T19:44:44.447Z,38.40
2023-01-01T19:49:53.679Z,38.20
2023-01-01T19:54:59.937Z,38.30
2023-01-01T20:00:03.180Z,38.50
2023-01-01T20:05:07.828Z,38.50
2023-01-01T20:10:12.701Z,38.80
2023-01-01T20:15:16.529Z,38.80
2023-01-01T20:20:19.830Z,38.70
2023-01-01T20:25:24.300Z,38.80
2023-01-01T20:30:27.450Z,38.80
2023-01-01T20:35:47.913Z,38.70
2023-01-01T20:40:55.270Z,38.70
2023-01-01T20:45:58.481Z,38.80
2023-01-01T20:51:01.572Z,38.80
2023-01-01T20:56:06.478Z,38.80
2023-01-01T21:01:09.697Z,38.90
2023-01-01T21:06:15.060Z,38.90
2023-01-01T21:11:23.049Z,39.00
2023-01-01T21:16:28.920Z,39.20
2023-01-01T21:21:37.015Z,39.90
2023-01-01T21:26:41.579Z,39.30
2023-01-01T21:31:44.841Z,39.60
2023-01-01T21:36:47.954Z,39.30
2023-01-01T21:41:52.931Z,39.30
2023-01-01T21:47:01.836Z,39.30
2023-01-01T21:52:19.173Z,39.00
2023-01-01T21:57:25.387Z,39.20
2023-01-01T22:02:37.654Z,39.00
2023-01-01T22:07:58.453Z,39.10
2023-01-01T22:13:03.357Z,38.70
2023-01-01T22:18:27.044Z,38.90
2023-01-01T22:23:39.383Z,39.30
2023-01-01T22:28:45.471Z,39.30
2023-01-01T22:33:49.938Z,39.00
2023-01-01T22:38:55.512Z,38.90
2023-01-01T22:44:02.599Z,39.10
2023-01-01T22:49:16.441Z,39.10
2023-01-01T22:54:19.511Z,39.10
2023-01-01T22:59:24.084Z,38.90
2023-01-01T23:04:27.205Z,39.00
2023-01-01T23:09:30.483Z,39.00
2023-01-01T23:14:52.159Z,38.80
2023-01-01T23:19:58.365Z,38.90
2023-01-01T23:25:01.917Z,38.70
2023-01-01T23:30:07.517Z,38.80
2023-01-01T23:35:11.846Z,39.00
2023-01-01T23:40:14.931Z,39.00
2023-01-01T23:45:19.375Z,38.80
2023-01-01T23:50:23.186Z,38.90
2023-01-01T23:55:26.388Z,39.00
